createdAt,value
2022-12-12T00:01:40.729Z,88.54
2022-12-12T00:04:27.095Z,88.67
2022-12-12T00:07:13.767Z,88.56
2022-12-12T00:10:00.757Z,88.59
2022-12-12T00:12:47.552Z,88.64
2022-12-12T00:15:34.343Z,88.66
2022-12-12T00:18:20.858Z,88.69
2022-12-12T00:21:13.740Z,88.65
2022-12-12T00:24:00.512Z,88.72
2022-12-12T00:26:47.820Z,88.71
2022-12-12T00:29:34.849Z,88.64
2022-12-12T00:32:21.589Z,88.58
2022-12-12T00:35:08.574Z,88.39
2022-12-12T00:37:57.337Z,88.42
2022-12-12T00:40:43.872Z,88.40
2022-12-12T00:43:30.473Z,88.29
2022-12-12T00:46:19.866Z,88.39
2022-12-12T00:49:06.726Z,88.34
2022-12-12T00:51:53.064Z,88.28
2022-12-12T00:54:39.700Z,88.32
2022-12-12T00:57:26.361Z,88.37
2022-12-12T01:00:14.568Z,88.41
2022-12-12T01:03:01.017Z,88.27
2022-12-12T01:05:47.457Z,88.34
2022-12-12T01:08:33.888Z,88.17
2022-12-12T01:11:21.288Z,87.78
2022-12-12T01:14:07.931Z,88.00
2022-12-12T01:16:54.320Z,88.09
2022-12-12T01:19:40.825Z,88.21
2022-12-12T01:22:27.513Z,88.15
2022-12-12T01:25:15.333Z,88.19
2022-12-12T01:28:04.762Z,88.08
2022-12-12T01:30:51.241Z,88.16
2022-12-12T01:33:38.476Z,88.25
2022-12-12T01:36:24.885Z,88.22
2022-12-12T01:39:11.395Z,88.20
2022-12-12T01:41:57.818Z,88.30
2022-12-12T01:44:52.941Z,88.51
2022-12-12T01:47:39.736Z,88.55
2022-12-12T01:50:26.405Z,88.54
2022-12-12T01:53:18.176Z,88.75
2022-12-12T01:56:12.401Z,88.84
2022-12-12T01:59:02.203Z,88.86
2022-12-12T02:01:48.975Z,88.87
2022-12-12T02:04:36.185Z,88.91
2022-12-12T02:07:23.001Z,88.95
2022-12-12T02:10:09.700Z,88.98
2022-12-12T02:13:01.312Z,89.00
2022-12-12T02:16:04.314Z,89.09
2022-12-12T02:19:55.613Z,89.08
2022-12-12T02:23:04.598Z,89.18
2022-12-12T02:26:10.339Z,89.17
2022-12-12T02:29:19.924Z,89.11
2022-12-12T02:32:24.673Z,89.11
2022-12-12T02:35:21.271Z,89.15
2022-12-12T02:38:36.112Z,89.14
2022-12-12T02:41:42.798Z,89.03
2022-12-12T02:44:40.003Z,89.05
2022-12-12T02:47:32.449Z,89.08
2022-12-12T02:50:24.570Z,89.17
2022-12-12T02:53:10.937Z,89.13
2022-12-12T02:56:44.460Z,89.13
2022-12-12T02:59:38.925Z,89.27
2022-12-12T03:02:45.668Z,89.21
2022-12-12T03:06:01.795Z,89.20
2022-12-12T03:09:24.710Z,89.17
2022-12-12T03:12:17.911Z,89.23
2022-12-12T03:15:22.271Z,89.16
2022-12-12T03:18:21.560Z,89.24
2022-12-12T03:21:17.793Z,89.19
2022-12-12T03:24:14.664Z,89.16
2022-12-12T03:27:19.394Z,89.18
2022-12-12T03:30:11.571Z,89.16
2022-12-12T03:33:09.886Z,89.17
2022-12-12T03:36:03.372Z,89.04
2022-12-12T03:38:57.412Z,89.06
2022-12-12T03:41:51.941Z,89.13
2022-12-12T03:44:51.463Z,89.15
2022-12-12T03:47:46.935Z,89.11
2022-12-12T03:50:42.856Z,89.04
2022-12-12T03:53:53.938Z,89.11
2022-12-12T03:56:49.560Z,89.24
2022-12-12T03:59:42.470Z,89.21
2022-12-12T04:02:41.457Z,89.31
2022-12-12T04:06:06.023Z,89.42
2022-12-12T04:09:15.709Z,89.55
2022-12-12T04:12:40.652Z,89.64
2022-12-12T04:15:32.729Z,89.60
2022-12-12T04:18:53.577Z,89.57
2022-12-12T04:22:18.064Z,89.67
2022-12-12T04:25:17.242Z,89.80
2022-12-12T04:28:07.579Z,89.76
2022-12-12T04:30:56.167Z,89.77
2022-12-12T04:33:49.794Z,89.85
2022-12-12T04:36:37.665Z,89.79
2022-12-12T04:39:29.352Z,89.86
2022-12-12T04:42:21.794Z,89.97
2022-12-12T04:45:19.937Z,90.03
2022-12-12T04:48:09.754Z,90.09
2022-12-12T04:50:59.374Z,90.04
2022-12-12T04:53:56.813Z,90.01
2022-12-12T04:56:46.220Z,90.12
2022-12-12T04:59:33.573Z,90.25
2022-12-12T05:02:57.885Z,90.34
2022-12-12T05:05:49.985Z,90.56
2022-12-12T05:08:41.492Z,90.66
2022-12-12T05:11:29.089Z,90.78
2022-12-12T05:14:17.429Z,90.69
2022-12-12T05:17:08.641Z,90.70
2022-12-12T05:19:56.129Z,90.88
2022-12-12T05:22:43.837Z,90.87
2022-12-12T05:25:30.794Z,90.80
2022-12-12T05:28:17.305Z,90.72
2022-12-12T05:31:03.963Z,90.82
2022-12-12T05:33:50.761Z,90.95
2022-12-12T05:36:37.240Z,90.91
2022-12-12T05:39:23.969Z,90.98
2022-12-12T05:42:10.703Z,90.92
2022-12-12T05:44:57.259Z,90.88
2022-12-12T05:47:43.761Z,90.88
2022-12-12T05:50:30.249Z,90.92
2022-12-12T05:53:16.668Z,90.91
2022-12-12T05:56:02.960Z,90.79
2022-12-12T05:58:49.311Z,90.70
2022-12-12T06:01:35.689Z,90.53
2022-12-12T06:04:22.479Z,90.62
2022-12-12T06:07:09.204Z,90.61
2022-12-12T06:09:55.917Z,90.58
2022-12-12T06:12:42.672Z,90.41
2022-12-12T06:15:29.012Z,90.31
2022-12-12T06:18:15.741Z,90.28
2022-12-12T06:21:08.205Z,90.24
2022-12-12T06:23:54.517Z,90.21
2022-12-12T06:26:41.045Z,90.08
2022-12-12T06:29:27.359Z,90.11
2022-12-12T06:32:14.014Z,90.11
2022-12-12T06:35:00.505Z,90.05
2022-12-12T06:37:48.554Z,89.99
2022-12-12T06:40:34.920Z,89.93
2022-12-12T06:43:21.478Z,90.10
2022-12-12T06:46:12.586Z,90.16
2022-12-12T06:48:58.974Z,90.12
2022-12-12T06:51:45.420Z,90.32
2022-12-12T06:54:31.876Z,90.16
2022-12-12T06:57:18.297Z,90.18
2022-12-12T07:00:05.448Z,90.25
2022-12-12T07:02:51.638Z,90.14
2022-12-12T07:05:38.107Z,90.27
2022-12-12T07:08:25.168Z,90.39
2022-12-12T07:11:14.601Z,90.29
2022-12-12T07:14:03.821Z,90.31
2022-12-12T07:16:50.565Z,90.33
2022-12-12T07:19:37.009Z,90.33
2022-12-12T07:22:23.300Z,90.27
2022-12-12T07:25:10.129Z,90.23
2022-12-12T07:27:57.029Z,90.37
2022-12-12T07:30:46.608Z,90.57
2022-12-12T07:33:42.628Z,90.60
2022-12-12T07:36:30.454Z,90.64
2022-12-12T07:39:20.659Z,90.63
2022-12-12T07:42:07.597Z,90.70
2022-12-12T07:44:53.909Z,90.84
2022-12-12T07:47:40.048Z,90.90
2022-12-12T07:50:26.280Z,90.85
2022-12-12T07:53:12.609Z,90.93
2022-12-12T07:55:58.950Z,91.04
2022-12-12T07:58:46.076Z,90.99
2022-12-12T08:01:32.617Z,90.98
2022-12-12T08:04:19.072Z,91.02
2022-12-12T08:07:08.588Z,91.15
2022-12-12T08:09:55.462Z,91.25
2022-12-12T08:12:41.892Z,91.27
2022-12-12T08:15:28.382Z,91.19
2022-12-12T08:18:14.848Z,91.06
2022-12-12T08:21:01.103Z,91.01
2022-12-12T08:23:47.587Z,91.04
2022-12-12T08:26:36.258Z,90.84
2022-12-12T08:29:22.642Z,90.92
2022-12-12T08:32:09.024Z,90.82
2022-12-12T08:34:57.024Z,90.97
2022-12-12T08:37:43.618Z,90.95
2022-12-12T08:40:30.125Z,90.97
2022-12-12T08:43:17.086Z,90.93
2022-12-12T08:46:04.780Z,90.99
2022-12-12T08:48:51.456Z,90.82
2022-12-12T08:51:39.692Z,90.80
2022-12-12T08:54:26.344Z,90.75
2022-12-12T08:57:13.125Z,90.28
2022-12-12T08:59:59.431Z,90.34
2022-12-12T09:02:46.283Z,90.22
2022-12-12T09:05:33.667Z,90.28
2022-12-12T09:08:21.565Z,90.03
2022-12-12T09:11:09.280Z,89.72
2022-12-12T09:13:55.766Z,89.83
2022-12-12T09:16:42.572Z,89.20
2022-12-12T09:19:29.203Z,89.13
2022-12-12T09:22:17.936Z,88.81
2022-12-12T09:25:06.041Z,88.68
2022-12-12T09:27:52.782Z,88.49
2022-12-12T09:30:40.449Z,88.50
2022-12-12T09:33:27.514Z,88.64
2022-12-12T09:36:15.299Z,88.79
2022-12-12T09:39:02.381Z,88.70
2022-12-12T09:41:49.268Z,88.48
2022-12-12T09:44:36.672Z,88.59
2022-12-12T09:47:43.429Z,87.98
2022-12-12T09:50:38.333Z,88.19
2022-12-12T09:53:26.863Z,88.06
2022-12-12T09:56:37.940Z,88.03
2022-12-12T09:59:33.940Z,88.29
2022-12-12T10:02:32.892Z,87.96
2022-12-12T10:05:28.885Z,87.96
2022-12-12T10:08:18.681Z,88.00
2022-12-12T10:11:29.426Z,88.09
2022-12-12T10:14:19.097Z,87.47
2022-12-12T10:17:12.213Z,87.69
2022-12-12T10:20:26.329Z,87.83
2022-12-12T10:23:25.487Z,87.99
2022-12-12T10:26:20.934Z,87.81
2022-12-12T10:29:15.768Z,87.65
2022-12-12T10:32:27.822Z,87.79
2022-12-12T10:35:35.054Z,87.74
2022-12-12T10:38:50.009Z,87.30
2022-12-12T10:41:42.298Z,86.77
2022-12-12T10:44:42.940Z,86.72
2022-12-12T10:47:34.777Z,86.59
2022-12-12T10:50:35.211Z,86.32
2022-12-12T10:53:23.318Z,86.33
2022-12-12T10:56:18.921Z,86.10
2022-12-12T10:59:05.655Z,86.15
2022-12-12T11:02:14.460Z,86.65
2022-12-12T11:05:06.006Z,86.31
2022-12-12T11:08:18.476Z,85.88
2022-12-12T11:11:18.332Z,85.72
2022-12-12T11:14:22.457Z,85.48
2022-12-12T11:17:32.302Z,85.33
2022-12-12T11:20:18.906Z,85.70
2022-12-12T11:23:05.231Z,85.95
2022-12-12T11:26:16.674Z,85.78
2022-12-12T11:29:03.391Z,86.08
2022-12-12T11:31:50.137Z,85.86
2022-12-12T11:34:40.030Z,85.68
2022-12-12T11:37:37.999Z,85.27
2022-12-12T11:40:30.504Z,85.78
2022-12-12T11:43:25.184Z,85.32
2022-12-12T11:46:14.730Z,85.62
2022-12-12T11:49:03.771Z,85.20
2022-12-12T11:51:50.228Z,85.14
2022-12-12T11:54:36.961Z,85.23
2022-12-12T11:57:50.571Z,85.19
2022-12-12T12:00:49.298Z,85.29
2022-12-12T12:03:50.990Z,85.01
2022-12-12T12:07:01.810Z,85.70
2022-12-12T12:09:57.731Z,85.72
2022-12-12T12:13:05.584Z,84.97
2022-12-12T12:16:11.083Z,85.27
2022-12-12T12:19:03.846Z,85.45
2022-12-12T12:22:08.767Z,85.34
2022-12-12T12:25:06.991Z,85.27
2022-12-12T12:28:31.185Z,85.13
2022-12-12T12:31:54.711Z,85.17
2022-12-12T12:34:59.414Z,85.60
2022-12-12T12:37:48.733Z,85.36
2022-12-12T12:41:02.687Z,85.52
2022-12-12T12:44:02.466Z,85.68
2022-12-12T12:47:07.489Z,85.41
2022-12-12T12:50:14.944Z,85.78
2022-12-12T12:53:17.402Z,85.83
2022-12-12T12:56:15.732Z,85.86
2022-12-12T12:59:10.048Z,86.16
2022-12-12T13:02:01.643Z,86.40
2022-12-12T13:05:23.878Z,86.80
2022-12-12T13:08:32.144Z,87.24
2022-12-12T13:11:25.475Z,87.83
2022-12-12T13:14:30.279Z,88.36
2022-12-12T13:17:41.113Z,88.62
2022-12-12T13:20:29.758Z,88.76
2022-12-12T13:23:56.234Z,89.06
2022-12-12T13:27:01.223Z,89.40
2022-12-12T13:29:57.997Z,89.74
2022-12-12T13:32:57.474Z,90.05
2022-12-12T13:35:48.084Z,90.04
2022-12-12T13:38:35.865Z,90.15
2022-12-12T13:41:22.741Z,90.26
2022-12-12T13:44:33.319Z,90.35
2022-12-12T13:47:22.702Z,90.68
2022-12-12T13:50:09.819Z,90.95
2022-12-12T13:53:15.282Z,91.13
2022-12-12T13:56:34.684Z,91.33
2022-12-12T13:59:25.389Z,91.41
2022-12-12T14:02:32.475Z,91.58
2022-12-12T14:05:27.876Z,91.75
2022-12-12T14:08:28.531Z,91.65
2022-12-12T14:11:36.755Z,91.61
2022-12-12T14:14:25.280Z,91.55
2022-12-12T14:17:25.450Z,91.45
2022-12-12T14:20:27.369Z,91.48
2022-12-12T14:23:13.576Z,91.52
2022-12-12T14:26:00.468Z,91.40
2022-12-12T14:28:47.740Z,91.29
2022-12-12T14:31:42.008Z,90.88
2022-12-12T14:39:01.813Z,90.69
2022-12-12T14:41:48.996Z,90.56
2022-12-12T14:44:47.830Z,90.38
2022-12-12T14:47:35.923Z,90.29
2022-12-12T14:50:22.562Z,90.19
2022-12-12T14:53:29.269Z,90.16
2022-12-12T14:56:24.518Z,90.05
2022-12-12T14:59:31.321Z,90.03
2022-12-12T15:02:21.007Z,90.08
2022-12-12T15:05:08.266Z,90.11
2022-12-12T15:07:59.845Z,90.16
2022-12-12T15:10:58.681Z,90.01
2022-12-12T15:13:55.382Z,90.02
2022-12-12T15:16:48.586Z,90.13
2022-12-12T15:19:44.935Z,90.12
2022-12-12T15:22:34.906Z,90.15
2022-12-12T15:25:25.236Z,90.22
2022-12-12T15:28:16.831Z,90.20
2022-12-12T15:31:03.368Z,90.20
2022-12-12T15:33:50.016Z,89.92
2022-12-12T15:36:36.222Z,89.93
2022-12-12T15:39:25.223Z,89.86
2022-12-12T15:42:14.454Z,89.91
2022-12-12T15:45:00.992Z,89.80
2022-12-12T15:47:55.118Z,89.59
2022-12-12T15:50:42.098Z,89.46
2022-12-12T15:53:38.059Z,89.51
2022-12-12T15:57:52.301Z,89.41
2022-12-12T16:00:39.837Z,89.52
2022-12-12T16:03:26.478Z,89.59
2022-12-12T16:06:17.385Z,89.65
2022-12-12T16:09:17.683Z,89.73
2022-12-12T16:12:04.195Z,89.76
2022-12-12T16:14:50.614Z,89.59
2022-12-12T16:17:37.282Z,89.50
2022-12-12T16:20:30.156Z,89.27
2022-12-12T16:23:32.868Z,89.41
2022-12-12T16:26:19.322Z,89.26
2022-12-12T16:29:05.442Z,89.34
2022-12-12T16:31:52.252Z,89.15
2022-12-12T16:34:38.499Z,88.92
2022-12-12T16:37:24.909Z,88.85
2022-12-12T16:40:15.808Z,88.87
2022-12-12T16:43:09.444Z,89.10
2022-12-12T16:45:57.927Z,89.13
2022-12-12T16:48:44.369Z,89.14
2022-12-12T16:51:33.976Z,89.27
2022-12-12T16:54:20.244Z,89.33
2022-12-12T16:57:06.578Z,89.37
2022-12-12T16:59:52.909Z,89.48
2022-12-12T17:02:40.323Z,89.64
2022-12-12T17:05:28.272Z,89.66
2022-12-12T17:08:16.110Z,89.68
2022-12-12T17:11:10.056Z,89.77
2022-12-12T17:13:57.558Z,89.90
2022-12-12T17:16:44.067Z,89.84
2022-12-12T17:19:31.372Z,89.98
2022-12-12T17:22:18.469Z,89.87
2022-12-12T17:25:05.364Z,89.88
2022-12-12T17:27:52.378Z,89.92
2022-12-12T17:30:39.754Z,89.75
2022-12-12T17:33:27.146Z,89.73
2022-12-12T17:36:13.923Z,89.71
2022-12-12T17:39:00.226Z,89.69
2022-12-12T17:41:46.572Z,89.73
2022-12-12T17:44:32.774Z,89.41
2022-12-12T17:47:19.247Z,89.40
2022-12-12T17:50:06.126Z,89.42
2022-12-12T17:58:41.415Z,89.81
2022-12-12T18:01:31.548Z,90.01
2022-12-12T18:04:20.849Z,90.14
2022-12-12T18:07:09.790Z,90.17
2022-12-12T18:09:56.511Z,90.36
2022-12-12T18:12:48.255Z,90.39
2022-12-12T18:15:37.834Z,90.53
2022-12-12T18:18:26.634Z,90.49
2022-12-12T18:21:43.301Z,90.49
2022-12-12T18:24:29.579Z,90.38
2022-12-12T18:27:16.116Z,90.49
2022-12-12T18:30:02.493Z,90.37
2022-12-12T18:32:48.678Z,90.17
2022-12-12T18:35:35.220Z,89.79
2022-12-12T18:38:21.539Z,89.80
2022-12-12T18:41:08.309Z,89.74
2022-12-12T18:43:55.724Z,89.54
2022-12-12T18:46:43.826Z,89.42
2022-12-12T18:49:30.198Z,89.30
2022-12-12T18:52:16.883Z,89.28
2022-12-12T18:55:03.821Z,89.15
2022-12-12T18:57:50.081Z,89.05
2022-12-12T19:00:40.086Z,88.83
2022-12-12T19:03:26.350Z,88.71
2022-12-12T19:06:15.710Z,88.78
2022-12-12T19:09:08.372Z,88.71
2022-12-12T19:12:01.901Z,88.66
2022-12-12T19:15:18.777Z,88.48
2022-12-12T19:17:56.168Z,88.62
2022-12-12T19:20:42.929Z,88.84
2022-12-12T19:23:29.413Z,89.02
2022-12-12T19:26:18.896Z,89.16
2022-12-12T19:29:08.206Z,89.05
2022-12-12T19:31:58.710Z,89.30
2022-12-12T19:34:45.491Z,89.32
2022-12-12T19:37:32.402Z,89.31
2022-12-12T19:40:19.006Z,89.45
2022-12-12T19:43:05.657Z,89.48
2022-12-12T19:46:01.753Z,89.49
2022-12-12T19:48:49.032Z,89.48
2022-12-12T19:51:39.083Z,89.43
2022-12-12T19:54:25.343Z,89.63
2022-12-12T19:57:11.779Z,89.75
2022-12-12T19:59:58.410Z,89.76
2022-12-12T20:02:45.719Z,89.70
2022-12-12T20:05:32.529Z,89.58
2022-12-12T20:08:19.119Z,89.60
2022-12-12T20:11:15.774Z,89.59
2022-12-12T20:14:03.219Z,89.53
2022-12-12T20:16:50.617Z,89.58
2022-12-12T20:19:36.758Z,89.53
2022-12-12T20:22:23.647Z,89.61
2022-12-12T20:25:10.449Z,89.67
2022-12-12T20:27:56.717Z,89.76
2022-12-12T20:30:43.372Z,89.75
2022-12-12T20:33:30.666Z,89.88
2022-12-12T20:36:23.007Z,89.90
2022-12-12T20:39:12.776Z,89.75
2022-12-12T20:41:59.393Z,89.79
2022-12-12T20:44:45.882Z,89.88
2022-12-12T20:47:32.662Z,89.70
2022-12-12T20:50:19.209Z,89.61
2022-12-12T20:53:05.531Z,89.69
2022-12-12T20:55:51.803Z,89.93
2022-12-12T20:58:39.209Z,89.83
2022-12-12T21:01:31.444Z,89.59
2022-12-12T21:04:18.464Z,89.44
2022-12-12T21:07:05.164Z,89.40
2022-12-12T21:09:51.360Z,89.32
2022-12-12T21:12:37.891Z,89.39
2022-12-12T21:15:24.837Z,89.33
2022-12-12T21:18:11.181Z,89.50
2022-12-12T21:20:57.868Z,89.58
2022-12-12T21:23:45.206Z,89.74
2022-12-12T21:26:32.025Z,89.59
2022-12-12T21:29:19.113Z,89.50
2022-12-12T21:32:05.904Z,89.41
2022-12-12T21:34:53.146Z,89.40
2022-12-12T21:37:40.691Z,89.51
2022-12-12T21:40:27.769Z,89.48
2022-12-12T21:43:14.332Z,89.65
2022-12-12T21:46:04.835Z,89.63
2022-12-12T21:49:11.010Z,89.77
2022-12-12T21:51:59.765Z,89.73
2022-12-12T21:54:46.351Z,89.64
2022-12-12T21:57:32.949Z,89.53
2022-12-12T22:00:19.495Z,89.78
2022-12-12T22:03:09.778Z,89.82
2022-12-12T22:05:56.560Z,89.84
2022-12-12T22:08:44.038Z,89.78
2022-12-12T22:11:40.357Z,89.94
2022-12-12T22:14:29.819Z,90.03
2022-12-12T22:17:16.635Z,90.00
2022-12-12T22:20:03.298Z,89.98
2022-12-12T22:22:49.991Z,90.09
2022-12-12T22:25:36.519Z,90.10
2022-12-12T22:28:23.243Z,89.96
2022-12-12T22:31:11.125Z,89.80
2022-12-12T22:34:03.070Z,89.74
2022-12-12T22:36:52.125Z,89.59
2022-12-12T22:39:38.527Z,89.15
2022-12-12T22:42:24.910Z,88.93
2022-12-12T22:45:11.881Z,88.86
2022-12-12T22:47:58.358Z,88.59
2022-12-12T22:50:44.865Z,88.47
2022-12-12T22:53:31.175Z,88.55
2022-12-12T22:56:18.356Z,88.62
2022-12-12T22:59:05.365Z,88.45
2022-12-12T23:01:51.882Z,88.38
2022-12-12T23:04:38.492Z,88.42
2022-12-12T23:07:25.136Z,88.36
2022-12-12T23:10:11.703Z,88.24
2022-12-12T23:12:57.961Z,88.41
2022-12-12T23:15:44.441Z,88.45
2022-12-12T23:18:30.872Z,88.59
2022-12-12T23:24:35.787Z,88.81
2022-12-12T23:27:22.544Z,88.88
2022-12-12T23:30:09.509Z,88.87
2022-12-12T23:32:55.975Z,88.93
2022-12-12T23:35:49.495Z,89.06
2022-12-12T23:38:36.351Z,88.98
2022-12-12T23:41:23.483Z,88.91
2022-12-12T23:44:15.927Z,89.01
2022-12-12T23:47:02.066Z,89.03
2022-12-12T23:49:48.232Z,88.99
2022-12-12T23:52:34.816Z,88.98
2022-12-12T23:55:21.409Z,89.02
2022-12-12T23:58:07.848Z,89.01
